createdAt,value
2022-12-18T00:01:24.866Z,34.17
2022-12-18T00:03:53.449Z,39.27
2022-12-18T00:06:22.279Z,41.53
2022-12-18T00:08:50.286Z,44.47
2022-12-18T00:11:19.852Z,40.43
2022-12-18T00:13:47.817Z,44.40
2022-12-18T00:16:17.229Z,49.23
2022-12-18T00:18:46.389Z,44.83
2022-12-18T00:21:14.822Z,51.20
2022-12-18T00:23:44.503Z,43.20
2022-12-18T00:26:13.828Z,43.67
2022-12-18T00:28:41.453Z,45.67
2022-12-18T00:31:10.442Z,38.27
2022-12-18T00:33:38.932Z,50.83
2022-12-18T00:36:10.944Z,36.53
2022-12-18T00:38:38.874Z,41.90
2022-12-18T00:41:08.681Z,48.23
2022-12-18T00:43:35.717Z,37.37
2022-12-18T00:46:03.956Z,40.73
2022-12-18T00:48:32.934Z,34.13
2022-12-18T00:51:00.961Z,37.93
2022-12-18T00:53:29.885Z,43.07
2022-12-18T00:55:57.567Z,40.20
2022-12-18T00:58:25.173Z,39.80
2022-12-18T01:00:52.819Z,38.47
2022-12-18T01:03:20.473Z,35.63
2022-12-18T01:05:48.384Z,37.20
2022-12-18T01:08:15.977Z,37.10
2022-12-18T01:10:44.892Z,35.73
2022-12-18T01:13:12.729Z,37.00
2022-12-18T01:15:40.885Z,33.73
2022-12-18T01:18:09.213Z,39.53
2022-12-18T01:20:36.829Z,41.73
2022-12-18T01:23:04.420Z,35.60
2022-12-18T01:25:32.035Z,36.33
2022-12-18T01:28:00.955Z,36.50
2022-12-18T01:30:28.685Z,35.13
2022-12-18T01:32:56.271Z,33.17
2022-12-18T01:35:23.853Z,32.33
2022-12-18T01:37:52.217Z,34.07
2022-12-18T01:40:20.023Z,36.90
2022-12-18T01:42:52.086Z,30.57
2022-12-18T01:45:29.578Z,33.17
2022-12-18T01:47:59.475Z,32.57
2022-12-18T01:50:30.888Z,36.70
2022-12-18T01:53:01.643Z,40.77
2022-12-18T01:55:31.935Z,37.47
2022-12-18T01:58:01.100Z,33.23
2022-12-18T02:00:31.000Z,30.30
2022-12-18T02:02:59.088Z,33.33
2022-12-18T02:05:35.242Z,38.07
2022-12-18T02:08:11.865Z,39.17
2022-12-18T02:10:46.080Z,32.57
2022-12-18T02:13:16.570Z,32.63
2022-12-18T02:15:52.197Z,34.67
2022-12-18T02:18:22.730Z,30.93
2022-12-18T02:20:54.127Z,35.07
2022-12-18T02:23:30.503Z,31.17
2022-12-18T02:26:21.164Z,34.30
2022-12-18T02:28:51.668Z,28.47
2022-12-18T02:31:26.011Z,32.70
2022-12-18T02:33:55.913Z,28.20
2022-12-18T02:36:24.480Z,32.83
2022-12-18T02:38:53.074Z,32.30
2022-12-18T02:41:22.958Z,34.67
2022-12-18T02:43:51.709Z,27.80
2022-12-18T02:46:30.738Z,33.00
2022-12-18T02:49:08.838Z,32.87
2022-12-18T02:51:42.710Z,33.93
2022-12-18T02:54:12.834Z,33.43
2022-12-18T02:56:45.950Z,31.77
2022-12-18T02:59:15.978Z,27.37
2022-12-18T03:01:47.430Z,30.37
2022-12-18T03:04:18.793Z,35.70
2022-12-18T03:06:49.223Z,29.50
2022-12-18T03:09:19.383Z,26.40
2022-12-18T03:12:06.461Z,35.97
2022-12-18T03:14:36.232Z,31.43
2022-12-18T03:17:05.571Z,35.53
2022-12-18T03:19:35.270Z,31.70
2022-12-18T03:22:05.440Z,29.50
2022-12-18T03:24:33.694Z,33.60
2022-12-18T03:27:04.346Z,36.60
2022-12-18T03:29:38.064Z,31.47
2022-12-18T03:32:13.007Z,34.30
2022-12-18T03:34:42.588Z,27.33
2022-12-18T03:37:10.569Z,37.27
2022-12-18T03:39:39.563Z,30.80
2022-12-18T03:42:14.698Z,26.97
2022-12-18T03:44:46.231Z,34.03
2022-12-18T03:47:16.832Z,30.87
2022-12-18T03:49:50.408Z,25.77
2022-12-18T03:52:23.321Z,28.47
2022-12-18T03:54:51.025Z,27.10
2022-12-18T03:57:22.012Z,30.47
2022-12-18T03:59:52.893Z,28.00
2022-12-18T04:02:20.828Z,28.70
2022-12-18T04:04:50.044Z,29.60
2022-12-18T04:07:18.259Z,28.60
2022-12-18T04:09:46.691Z,29.80
2022-12-18T04:12:14.228Z,27.03
2022-12-18T04:14:43.711Z,29.17
2022-12-18T04:17:11.882Z,27.50
2022-12-18T04:19:40.527Z,23.90
2022-12-18T04:22:08.694Z,26.30
2022-12-18T04:24:37.588Z,25.50
2022-12-18T04:27:05.798Z,27.73
2022-12-18T04:29:34.635Z,23.23
2022-12-18T04:32:03.634Z,28.57
2022-12-18T04:34:31.542Z,25.17
2022-12-18T04:36:59.109Z,26.10
2022-12-18T04:39:26.802Z,26.97
2022-12-18T04:41:54.367Z,24.33
2022-12-18T04:44:21.916Z,28.80
2022-12-18T04:46:49.545Z,30.10
2022-12-18T04:49:18.604Z,24.40
2022-12-18T04:51:46.551Z,27.10
2022-12-18T04:54:14.361Z,30.30
2022-12-18T04:56:42.135Z,27.57
2022-12-18T04:59:09.726Z,30.53
2022-12-18T05:01:37.459Z,26.93
2022-12-18T05:04:05.577Z,31.03
2022-12-18T05:06:34.790Z,24.57
2022-12-18T05:09:02.366Z,29.40
2022-12-18T05:11:29.977Z,28.67
2022-12-18T05:13:58.817Z,30.43
2022-12-18T05:16:26.481Z,30.17
2022-12-18T05:18:54.102Z,29.73
2022-12-18T05:21:21.666Z,27.73
2022-12-18T05:23:50.566Z,33.40
2022-12-18T05:26:19.595Z,26.73
2022-12-18T05:28:47.634Z,30.93
2022-12-18T05:31:15.629Z,25.30
2022-12-18T05:33:43.710Z,28.80
2022-12-18T05:36:12.340Z,26.27
2022-12-18T05:38:40.857Z,27.93
2022-12-18T05:41:11.136Z,26.77
2022-12-18T05:43:40.175Z,29.13
2022-12-18T05:46:08.997Z,29.73
2022-12-18T05:48:36.855Z,36.47
2022-12-18T05:51:09.514Z,30.17
2022-12-18T05:53:37.918Z,32.77
2022-12-18T05:56:08.213Z,27.40
2022-12-18T05:58:37.208Z,26.23
2022-12-18T06:01:09.690Z,26.13
2022-12-18T06:03:37.841Z,30.67
2022-12-18T06:06:06.135Z,27.73
2022-12-18T06:08:33.696Z,34.40
2022-12-18T06:11:02.059Z,28.00
2022-12-18T06:13:29.667Z,28.87
2022-12-18T06:15:58.590Z,25.53
2022-12-18T06:18:26.640Z,24.47
2022-12-18T06:20:57.833Z,30.98
2022-12-18T06:23:26.204Z,34.08
2022-12-18T06:25:53.926Z,32.67
2022-12-18T06:28:21.733Z,28.90
2022-12-18T06:30:50.236Z,27.90
2022-12-18T06:33:19.297Z,30.57
2022-12-18T06:35:46.877Z,30.27
2022-12-18T06:38:14.490Z,32.80
2022-12-18T06:40:42.049Z,25.57
2022-12-18T06:43:10.367Z,27.30
2022-12-18T06:45:38.608Z,26.17
2022-12-18T06:48:06.567Z,28.13
2022-12-18T06:50:35.739Z,27.40
2022-12-18T06:53:03.347Z,27.07
2022-12-18T06:55:31.710Z,24.53
2022-12-18T06:57:59.282Z,25.07
2022-12-18T07:00:26.845Z,31.43
2022-12-18T07:02:54.536Z,27.47
2022-12-18T07:05:22.152Z,23.00
2022-12-18T07:07:51.193Z,33.60
2022-12-18T07:10:18.770Z,27.20
2022-12-18T07:12:47.209Z,25.97
2022-12-18T07:15:14.955Z,27.40
2022-12-18T07:17:42.822Z,23.83
2022-12-18T07:20:11.880Z,23.67
2022-12-18T07:22:39.887Z,22.23
2022-12-18T07:25:09.665Z,19.73
2022-12-18T07:27:37.272Z,25.67
2022-12-18T07:30:06.139Z,28.67
2022-12-18T07:32:33.686Z,26.43
2022-12-18T07:35:01.246Z,21.93
2022-12-18T07:37:29.148Z,24.60
2022-12-18T07:39:56.712Z,23.43
2022-12-18T07:42:35.768Z,22.13
2022-12-18T07:45:04.443Z,27.00
2022-12-18T07:47:33.275Z,25.03
2022-12-18T07:50:00.881Z,25.80
2022-12-18T07:52:28.492Z,28.13
2022-12-18T07:54:56.677Z,25.00
2022-12-18T07:57:49.461Z,27.87
2022-12-18T08:00:14.627Z,24.33
2022-12-18T08:02:42.486Z,25.20
2022-12-18T08:05:10.867Z,26.77
2022-12-18T08:07:38.442Z,23.77
2022-12-18T08:10:06.929Z,25.50
2022-12-18T08:12:35.900Z,23.33
2022-12-18T08:15:03.559Z,25.70
2022-12-18T08:17:32.374Z,32.63
2022-12-18T08:20:00.026Z,31.07
2022-12-18T08:22:28.006Z,32.10
2022-12-18T08:24:55.719Z,26.70
2022-12-18T08:27:30.648Z,28.77
2022-12-18T08:29:59.892Z,28.07
2022-12-18T08:32:28.446Z,29.57
2022-12-18T08:34:56.278Z,53.87
2022-12-18T08:37:23.827Z,25.40
2022-12-18T08:39:51.509Z,24.23
2022-12-18T08:42:36.042Z,28.20
2022-12-18T08:45:05.562Z,24.70
2022-12-18T08:47:33.504Z,27.03
2022-12-18T08:50:01.114Z,31.37
2022-12-18T08:52:29.242Z,26.47
2022-12-18T08:54:56.812Z,27.87
2022-12-18T08:57:24.403Z,25.77
2022-12-18T08:59:52.517Z,25.80
2022-12-18T09:02:21.671Z,26.20
2022-12-18T09:04:55.422Z,27.37
2022-12-18T09:07:24.794Z,23.80
2022-12-18T09:09:52.420Z,24.00
2022-12-18T09:12:19.994Z,28.97
2022-12-18T09:14:47.566Z,26.37
2022-12-18T09:17:15.292Z,28.57
2022-12-18T09:19:44.317Z,22.83
2022-12-18T09:22:11.916Z,22.53
2022-12-18T09:24:39.477Z,23.80
2022-12-18T09:27:07.164Z,24.80
2022-12-18T09:29:35.146Z,27.00
2022-12-18T09:32:02.721Z,26.63
2022-12-18T09:34:30.304Z,23.47
2022-12-18T09:36:59.597Z,26.20
2022-12-18T09:39:27.182Z,28.83
2022-12-18T09:41:56.938Z,22.60
2022-12-18T09:44:27.446Z,26.45
2022-12-18T09:47:05.490Z,21.67
2022-12-18T09:49:35.982Z,26.93
2022-12-18T09:52:10.055Z,26.80
2022-12-18T09:54:41.114Z,24.88
2022-12-18T09:57:15.352Z,23.27
2022-12-18T09:59:44.361Z,22.13
2022-12-18T10:02:22.274Z,30.50
2022-12-18T10:04:56.948Z,27.00
2022-12-18T10:07:30.322Z,25.07
2022-12-18T10:10:04.694Z,21.43
2022-12-18T10:12:35.180Z,20.97
2022-12-18T10:15:06.588Z,21.27
2022-12-18T10:17:41.248Z,21.50
2022-12-18T10:20:14.694Z,22.87
2022-12-18T10:22:56.295Z,20.60
2022-12-18T10:25:27.280Z,21.37
2022-12-18T10:27:57.229Z,23.10
2022-12-18T10:30:25.803Z,19.03
2022-12-18T10:32:53.618Z,18.07
2022-12-18T10:35:22.638Z,15.67
2022-12-18T10:38:08.985Z,17.50
2022-12-18T10:40:51.479Z,16.80
2022-12-18T10:43:23.464Z,16.43
2022-12-18T10:46:16.512Z,17.27
2022-12-18T10:48:52.424Z,17.63
2022-12-18T10:51:25.365Z,19.10
2022-12-18T10:53:59.158Z,19.00
2022-12-18T10:56:28.964Z,14.97
2022-12-18T10:59:01.837Z,15.27
2022-12-18T11:01:30.307Z,20.50
2022-12-18T11:04:03.116Z,16.30
2022-12-18T11:06:31.374Z,17.53
2022-12-18T11:09:03.666Z,17.23
2022-12-18T11:11:34.598Z,18.27
2022-12-18T11:14:04.732Z,20.63
2022-12-18T11:16:36.053Z,19.67
2022-12-18T11:19:22.246Z,17.87
2022-12-18T11:21:50.612Z,19.60
2022-12-18T11:24:23.215Z,18.67
2022-12-18T11:26:56.267Z,19.57
2022-12-18T11:29:33.486Z,18.00
2022-12-18T11:32:30.841Z,14.03
2022-12-18T11:35:03.280Z,18.97
2022-12-18T11:37:31.372Z,17.13
2022-12-18T11:40:03.802Z,18.73
2022-12-18T11:42:37.670Z,17.63
2022-12-18T11:45:26.886Z,16.77
2022-12-18T11:47:59.885Z,19.23
2022-12-18T11:50:30.856Z,15.70
2022-12-18T11:53:04.229Z,16.13
2022-12-18T11:55:39.807Z,18.33
2022-12-18T11:58:14.036Z,15.50
2022-12-18T12:00:46.870Z,18.63
2022-12-18T12:03:24.462Z,16.60
2022-12-18T12:06:02.214Z,16.57
2022-12-18T12:08:39.756Z,15.43
2022-12-18T12:11:16.212Z,19.00
2022-12-18T12:13:51.267Z,16.77
2022-12-18T12:16:20.567Z,18.77
2022-12-18T12:19:07.131Z,17.87
2022-12-18T12:21:38.832Z,20.13
2022-12-18T12:24:17.579Z,19.70
2022-12-18T12:26:52.248Z,15.43
2022-12-18T12:29:30.111Z,18.77
2022-12-18T12:32:07.002Z,16.63
2022-12-18T12:34:37.016Z,18.17
2022-12-18T12:37:15.636Z,16.97
2022-12-18T12:39:44.811Z,16.87
2022-12-18T12:42:35.728Z,17.13
2022-12-18T12:45:07.224Z,19.97
2022-12-18T12:47:39.703Z,19.37
2022-12-18T12:50:14.383Z,17.03
2022-12-18T12:52:44.912Z,16.63
2022-12-18T12:55:17.175Z,19.07
2022-12-18T12:57:49.866Z,19.03
2022-12-18T13:00:20.179Z,15.17
2022-12-18T13:02:53.278Z,17.90
2022-12-18T13:05:26.016Z,17.00
2022-12-18T13:07:58.523Z,14.27
2022-12-18T13:10:33.138Z,16.63
2022-12-18T13:13:02.968Z,16.70
2022-12-18T13:15:40.281Z,17.33
2022-12-18T13:18:15.496Z,22.17
2022-12-18T13:20:50.752Z,24.03
2022-12-18T13:23:28.991Z,22.83
2022-12-18T13:25:57.570Z,16.60
2022-12-18T13:28:57.392Z,14.53
2022-12-18T13:32:10.192Z,18.00
2022-12-18T13:34:38.466Z,16.10
2022-12-18T13:37:45.331Z,18.90
2022-12-18T13:40:56.143Z,16.20
2022-12-18T13:43:33.423Z,16.17
2022-12-18T13:46:03.979Z,16.63
2022-12-18T13:48:34.478Z,18.90
2022-12-18T13:51:04.518Z,14.53
2022-12-18T13:53:35.670Z,17.37
2022-12-18T13:56:04.492Z,17.87
2022-12-18T13:58:34.027Z,18.20
2022-12-18T14:01:04.053Z,16.97
2022-12-18T14:03:32.482Z,18.83
2022-12-18T14:06:03.769Z,17.47
2022-12-18T14:08:37.246Z,17.77
2022-12-18T14:11:07.492Z,22.67
2022-12-18T14:13:38.541Z,19.43
2022-12-18T14:16:08.499Z,16.23
2022-12-18T14:18:45.144Z,20.43
2022-12-18T14:21:20.760Z,18.97
2022-12-18T14:23:48.509Z,18.00
2022-12-18T14:26:29.339Z,15.20
2022-12-18T14:28:58.796Z,16.60
2022-12-18T14:31:28.172Z,17.53
2022-12-18T14:33:56.239Z,19.47
2022-12-18T14:36:25.980Z,20.30
2022-12-18T14:38:55.417Z,22.77
2022-12-18T14:41:23.748Z,22.07
2022-12-18T14:43:52.574Z,22.63
2022-12-18T14:46:35.254Z,18.70
2022-12-18T14:49:04.745Z,18.13
2022-12-18T14:51:33.811Z,18.73
2022-12-18T14:54:03.656Z,23.20
2022-12-18T14:56:33.316Z,18.63
2022-12-18T14:59:02.260Z,18.93
2022-12-18T15:01:33.412Z,19.70
2022-12-18T15:04:02.672Z,21.10
2022-12-18T15:06:35.806Z,19.40
2022-12-18T15:09:05.581Z,18.27
2022-12-18T15:11:48.520Z,17.70
2022-12-18T15:14:35.737Z,20.43
2022-12-18T15:17:07.347Z,27.37
2022-12-18T15:19:40.024Z,23.97
2022-12-18T15:22:20.801Z,26.10
2022-12-18T15:24:50.006Z,34.97
2022-12-18T15:27:26.415Z,25.47
2022-12-18T15:30:19.291Z,18.23
2022-12-18T15:32:49.780Z,20.10
2022-12-18T15:35:19.911Z,17.27
2022-12-18T15:37:48.171Z,20.00
2022-12-18T15:40:17.460Z,17.27
2022-12-18T15:43:03.391Z,17.87
2022-12-18T15:45:31.197Z,16.13
2022-12-18T15:48:00.143Z,16.47
2022-12-18T15:50:28.043Z,17.13
2022-12-18T15:52:56.849Z,14.97
2022-12-18T15:55:43.991Z,16.43
2022-12-18T15:58:12.908Z,17.57
2022-12-18T16:00:42.286Z,24.13
2022-12-18T16:03:11.943Z,21.43
2022-12-18T16:05:39.603Z,18.10
2022-12-18T16:08:07.233Z,17.83
2022-12-18T16:10:34.909Z,25.33
2022-12-18T16:15:38.666Z,70.33
2022-12-18T16:18:06.386Z,34.63
2022-12-18T16:20:35.398Z,29.83
2022-12-18T16:23:04.450Z,39.17
2022-12-18T16:25:32.203Z,54.97
2022-12-18T16:28:01.711Z,54.03
2022-12-18T16:30:36.241Z,126.53
2022-12-18T16:33:09.304Z,125.70
2022-12-18T16:35:41.543Z,93.33
2022-12-18T16:38:10.250Z,45.50
2022-12-18T16:41:00.091Z,58.07
2022-12-18T16:43:27.767Z,48.27
2022-12-18T16:45:58.426Z,45.70
2022-12-18T16:48:26.532Z,36.63
2022-12-18T16:51:03.698Z,48.80
2022-12-18T16:53:31.488Z,30.43
2022-12-18T16:56:00.128Z,19.97
2022-12-18T16:58:27.794Z,22.57
2022-12-18T17:00:55.376Z,20.27
2022-12-18T17:03:23.060Z,19.30
2022-12-18T17:05:53.212Z,18.47
2022-12-18T17:08:22.382Z,27.25
2022-12-18T17:10:49.947Z,25.93
2022-12-18T17:13:20.257Z,24.93
2022-12-18T17:15:51.792Z,23.83
2022-12-18T17:18:19.702Z,21.77
2022-12-18T17:20:47.412Z,21.30
2022-12-18T17:23:15.119Z,22.47
2022-12-18T17:25:44.015Z,24.07
2022-12-18T17:28:12.010Z,21.53
2022-12-18T17:30:39.569Z,25.73
2022-12-18T17:33:07.697Z,23.10
2022-12-18T17:35:35.304Z,23.40
2022-12-18T17:38:02.881Z,25.70
2022-12-18T17:40:30.441Z,20.20
2022-12-18T17:43:00.034Z,28.40
2022-12-18T17:45:27.824Z,29.00
2022-12-18T17:47:59.738Z,25.03
2022-12-18T17:50:27.593Z,31.13
2022-12-18T17:52:56.878Z,29.40
2022-12-18T17:55:24.518Z,25.53
2022-12-18T17:57:52.093Z,23.27
2022-12-18T18:00:21.382Z,30.70
2022-12-18T18:02:49.076Z,30.17
2022-12-18T18:05:17.101Z,28.47
2022-12-18T18:07:44.697Z,24.77
2022-12-18T18:10:12.375Z,27.33
2022-12-18T18:12:57.686Z,28.53
2022-12-18T18:15:26.584Z,29.93
2022-12-18T18:17:54.177Z,30.20
2022-12-18T18:20:22.760Z,34.70
2022-12-18T18:22:51.096Z,36.03
2022-12-18T18:25:18.844Z,28.60
2022-12-18T18:27:47.062Z,27.50
2022-12-18T18:30:15.426Z,34.33
2022-12-18T18:32:44.352Z,32.57
2022-12-18T18:35:24.573Z,34.10
2022-12-18T18:38:00.762Z,31.07
2022-12-18T18:40:28.498Z,31.60
2022-12-18T18:42:57.491Z,27.47
2022-12-18T18:45:25.189Z,21.40
2022-12-18T18:47:54.888Z,23.30
2022-12-18T18:50:22.718Z,28.30
2022-12-18T18:52:51.057Z,31.07
2022-12-18T18:55:25.475Z,29.30
2022-12-18T18:57:53.477Z,27.20
2022-12-18T19:00:21.514Z,29.77
2022-12-18T19:02:49.555Z,29.93
2022-12-18T19:05:18.788Z,30.93
2022-12-18T19:07:46.389Z,30.03
2022-12-18T19:10:14.042Z,31.87
2022-12-18T19:12:59.424Z,32.37
2022-12-18T19:15:26.970Z,31.07
2022-12-18T19:17:54.919Z,32.63
2022-12-18T19:20:24.037Z,34.57
2022-12-18T19:22:55.500Z,36.37
2022-12-18T19:25:30.680Z,28.10
2022-12-18T19:28:12.019Z,33.87
2022-12-18T19:30:50.597Z,28.90
2022-12-18T19:33:41.763Z,29.87
2022-12-18T19:36:14.193Z,34.13
2022-12-18T19:38:43.703Z,35.57
2022-12-18T19:41:12.929Z,28.87
2022-12-18T19:43:41.569Z,28.30
2022-12-18T19:46:10.550Z,31.33
2022-12-18T19:48:38.464Z,30.30
2022-12-18T19:51:07.693Z,35.23
2022-12-18T19:53:37.018Z,31.73
2022-12-18T19:56:08.338Z,38.60
2022-12-18T19:58:36.410Z,30.00
2022-12-18T20:01:04.465Z,31.83
2022-12-18T20:03:34.586Z,33.50
2022-12-18T20:06:09.682Z,40.00
2022-12-18T20:08:39.265Z,28.63
2022-12-18T20:11:07.522Z,34.80
2022-12-18T20:13:35.448Z,38.07
2022-12-18T20:16:03.053Z,35.67
2022-12-18T20:18:30.721Z,39.53
2022-12-18T20:20:58.919Z,35.77
2022-12-18T20:23:29.319Z,38.03
2022-12-18T20:26:01.192Z,35.57
2022-12-18T20:28:29.265Z,34.70
2022-12-18T20:31:01.668Z,33.60
2022-12-18T20:33:30.053Z,35.40
2022-12-18T20:36:02.303Z,38.50
2022-12-18T20:38:31.120Z,35.13
2022-12-18T20:41:02.550Z,38.50
2022-12-18T20:43:30.209Z,37.50
2022-12-18T20:46:03.096Z,34.93
2022-12-18T20:48:31.180Z,37.53
2022-12-18T20:51:00.194Z,33.87
2022-12-18T20:53:31.899Z,33.23
2022-12-18T20:56:02.161Z,39.70
2022-12-18T20:58:29.837Z,34.93
2022-12-18T21:01:04.185Z,38.57
2022-12-18T21:03:32.157Z,34.20
2022-12-18T21:05:59.853Z,41.33
2022-12-18T21:08:27.434Z,36.43
2022-12-18T21:10:55.528Z,32.43
2022-12-18T21:13:23.580Z,37.07
2022-12-18T21:15:54.382Z,38.00
2022-12-18T21:18:22.610Z,37.23
2022-12-18T21:20:50.494Z,32.67
2022-12-18T21:23:18.721Z,33.87
2022-12-18T21:25:47.558Z,36.80
2022-12-18T21:28:19.485Z,37.33
2022-12-18T21:30:49.203Z,37.20
2022-12-18T21:33:17.520Z,36.63
2022-12-18T21:35:45.084Z,42.43
2022-12-18T21:38:14.214Z,36.67
2022-12-18T21:40:41.870Z,41.70
2022-12-18T21:43:27.778Z,42.20
2022-12-18T21:45:57.897Z,32.83
2022-12-18T21:48:27.385Z,42.70
2022-12-18T21:50:55.561Z,33.80
2022-12-18T21:53:23.170Z,38.97
2022-12-18T21:55:58.662Z,43.47
2022-12-18T21:58:26.270Z,41.87
2022-12-18T22:00:53.970Z,39.67
